sensor_id;sensor_type;location;lat;lon;timestamp;P1;durP1;ratioP1;P2;durP2;ratioP2
54853;SDS011;40747;49.480;8.658;2022-11-25T00:01:07;0.68;;;0.40;;
54853;SDS011;40747;49.480;8.658;2022-11-25T00:03:52;0.75;;;0.55;;
54853;SDS011;40747;49.480;8.658;2022-11-25T00:06:20;3.08;;;0.43;;
54853;SDS011;40747;49.480;8.658;2022-11-25T00:08:46;2.05;;;0.65;;
54853;SDS011;40747;49.480;8.658;2022-11-25T00:11:14;1.55;;;1.13;;
54853;SDS011;40747;49.480;8.658;2022-11-25T00:13:41;2.85;;;0.77;;
54853;SDS011;40747;49.480;8.658;2022-11-25T00:16:11;1.75;;;0.63;;
54853;SDS011;40747;49.480;8.658;2022-11-25T00:18:38;8.95;;;1.23;;
54853;SDS011;40747;49.480;8.658;2022-11-25T00:21:07;11.70;;;1.92;;
54853;SDS011;40747;49.480;8.658;2022-11-25T00:23:33;11.55;;;0.68;;
54853;SDS011;40747;49.480;8.658;2022-11-25T00:26:12;1.13;;;0.70;;
54853;SDS011;40747;49.480;8.658;2022-11-25T00:28:40;3.95;;;1.00;;
54853;SDS011;40747;49.480;8.658;2022-11-25T00:31:07;1.45;;;1.33;;
54853;SDS011;40747;49.480;8.658;2022-11-25T00:33:35;0.77;;;0.38;;
54853;SDS011;40747;49.480;8.658;2022-11-25T00:36:01;0.43;;;0.25;;
54853;SDS011;40747;49.480;8.658;2022-11-25T00:38:28;1.73;;;0.32;;
54853;SDS011;40747;49.480;8.658;2022-11-25T00:40:54;2.15;;;0.60;;
54853;SDS011;40747;49.480;8.658;2022-11-25T00:43:37;1.55;;;0.43;;
54853;SDS011;40747;49.480;8.658;2022-11-25T00:46:21;2.35;;;1.00;;
54853;SDS011;40747;49.480;8.658;2022-11-25T00:48:46;4.00;;;1.40;;
54853;SDS011;40747;49.480;8.658;2022-11-25T00:51:12;5.53;;;0.55;;
54853;SDS011;40747;49.480;8.658;2022-11-25T00:53:37;7.00;;;0.80;;
54853;SDS011;40747;49.480;8.658;2022-11-25T00:56:02;3.60;;;1.02;;
54853;SDS011;40747;49.480;8.658;2022-11-25T00:58:37;3.67;;;0.70;;
54853;SDS011;40747;49.480;8.658;2022-11-25T01:01:02;2.22;;;1.33;;
54853;SDS011;40747;49.480;8.658;2022-11-25T01:03:28;2.88;;;0.70;;
54853;SDS011;40747;49.480;8.658;2022-11-25T01:05:53;0.75;;;0.60;;
54853;SDS011;40747;49.480;8.658;2022-11-25T01:08:19;2.72;;;0.32;;
54853;SDS011;40747;49.480;8.658;2022-11-25T01:10:44;5.25;;;1.08;;
54853;SDS011;40747;49.480;8.658;2022-11-25T01:13:09;0.43;;;0.40;;
54853;SDS011;40747;49.480;8.658;2022-11-25T01:15:35;9.95;;;0.73;;
54853;SDS011;40747;49.480;8.658;2022-11-25T01:18:01;3.22;;;1.00;;
54853;SDS011;40747;49.480;8.658;2022-11-25T01:20:27;2.97;;;0.93;;
54853;SDS011;40747;49.480;8.658;2022-11-25T01:22:52;0.50;;;0.40;;
54853;SDS011;40747;49.480;8.658;2022-11-25T01:25:17;0.93;;;0.60;;
54853;SDS011;40747;49.480;8.658;2022-11-25T01:27:42;9.82;;;0.80;;
54853;SDS011;40747;49.480;8.658;2022-11-25T01:30:08;1.10;;;0.60;;
54853;SDS011;40747;49.480;8.658;2022-11-25T01:32:33;1.20;;;0.60;;
54853;SDS011;40747;49.480;8.658;2022-11-25T01:34:59;1.08;;;0.80;;
54853;SDS011;40747;49.480;8.658;2022-11-25T01:37:24;2.25;;;0.73;;
54853;SDS011;40747;49.480;8.658;2022-11-25T01:39:50;4.32;;;0.80;;
54853;SDS011;40747;49.480;8.658;2022-11-25T01:42:16;4.32;;;0.93;;
54853;SDS011;40747;49.480;8.658;2022-11-25T01:44:41;4.53;;;0.60;;
54853;SDS011;40747;49.480;8.658;2022-11-25T01:47:19;3.00;;;0.57;;
54853;SDS011;40747;49.480;8.658;2022-11-25T01:52:31;7.75;;;0.60;;
54853;SDS011;40747;49.480;8.658;2022-11-25T01:55:02;1.52;;;0.65;;
54853;SDS011;40747;49.480;8.658;2022-11-25T01:57:47;1.05;;;0.40;;
54853;SDS011;40747;49.480;8.658;2022-11-25T02:00:17;2.70;;;0.77;;
54853;SDS011;40747;49.480;8.658;2022-11-25T02:02:44;0.35;;;0.35;;
54853;SDS011;40747;49.480;8.658;2022-11-25T02:05:11;3.70;;;0.80;;
54853;SDS011;40747;49.480;8.658;2022-11-25T02:07:40;0.98;;;0.40;;
54853;SDS011;40747;49.480;8.658;2022-11-25T02:10:09;3.85;;;0.82;;
54853;SDS011;40747;49.480;8.658;2022-11-25T02:12:39;2.08;;;0.60;;
54853;SDS011;40747;49.480;8.658;2022-11-25T02:15:07;0.68;;;0.55;;
54853;SDS011;40747;49.480;8.658;2022-11-25T02:17:33;0.55;;;0.45;;
54853;SDS011;40747;49.480;8.658;2022-11-25T02:20:04;2.50;;;1.13;;
54853;SDS011;40747;49.480;8.658;2022-11-25T02:25:12;2.17;;;0.98;;
54853;SDS011;40747;49.480;8.658;2022-11-25T02:27:40;1.88;;;0.93;;
54853;SDS011;40747;49.480;8.658;2022-11-25T02:30:08;3.25;;;1.08;;
54853;SDS011;40747;49.480;8.658;2022-11-25T02:32:34;0.90;;;0.85;;
54853;SDS011;40747;49.480;8.658;2022-11-25T02:34:59;2.70;;;0.98;;
54853;SDS011;40747;49.480;8.658;2022-11-25T02:37:24;1.00;;;1.00;;
54853;SDS011;40747;49.480;8.658;2022-11-25T02:39:51;1.05;;;0.68;;
54853;SDS011;40747;49.480;8.658;2022-11-25T02:42:17;8.45;;;1.40;;
54853;SDS011;40747;49.480;8.658;2022-11-25T02:44:46;4.18;;;1.30;;
54853;SDS011;40747;49.480;8.658;2022-11-25T02:47:12;4.25;;;2.05;;
54853;SDS011;40747;49.480;8.658;2022-11-25T02:49:37;7.13;;;1.42;;
54853;SDS011;40747;49.480;8.658;2022-11-25T02:52:03;0.98;;;0.45;;
54853;SDS011;40747;49.480;8.658;2022-11-25T02:54:28;8.70;;;1.00;;
54853;SDS011;40747;49.480;8.658;2022-11-25T02:56:53;1.05;;;0.90;;
54853;SDS011;40747;49.480;8.658;2022-11-25T02:59:18;2.90;;;1.10;;
54853;SDS011;40747;49.480;8.658;2022-11-25T03:01:44;2.35;;;1.23;;
54853;SDS011;40747;49.480;8.658;2022-11-25T03:04:09;0.73;;;0.55;;
54853;SDS011;40747;49.480;8.658;2022-11-25T03:06:34;2.33;;;1.00;;
54853;SDS011;40747;49.480;8.658;2022-11-25T03:09:00;1.27;;;0.50;;
54853;SDS011;40747;49.480;8.658;2022-11-25T03:11:26;7.13;;;1.40;;
54853;SDS011;40747;49.480;8.658;2022-11-25T03:14:10;1.63;;;0.90;;
54853;SDS011;40747;49.480;8.658;2022-11-25T03:16:36;7.22;;;1.35;;
54853;SDS011;40747;49.480;8.658;2022-11-25T03:19:01;0.73;;;0.57;;
54853;SDS011;40747;49.480;8.658;2022-11-25T03:21:27;0.82;;;0.45;;
54853;SDS011;40747;49.480;8.658;2022-11-25T03:23:52;3.03;;;0.77;;
54853;SDS011;40747;49.480;8.658;2022-11-25T03:26:17;5.03;;;0.75;;
54853;SDS011;40747;49.480;8.658;2022-11-25T03:28:43;0.70;;;0.50;;
54853;SDS011;40747;49.480;8.658;2022-11-25T03:31:11;9.40;;;0.90;;
54853;SDS011;40747;49.480;8.658;2022-11-25T03:33:36;4.13;;;0.73;;
54853;SDS011;40747;49.480;8.658;2022-11-25T03:36:01;4.82;;;0.80;;
54853;SDS011;40747;49.480;8.658;2022-11-25T03:38:27;2.05;;;1.00;;
54853;SDS011;40747;49.480;8.658;2022-11-25T03:40:52;3.20;;;0.63;;
54853;SDS011;40747;49.480;8.658;2022-11-25T03:43:17;1.05;;;0.73;;
54853;SDS011;40747;49.480;8.658;2022-11-25T03:45:43;2.45;;;0.60;;
54853;SDS011;40747;49.480;8.658;2022-11-25T03:48:08;1.33;;;0.98;;
54853;SDS011;40747;49.480;8.658;2022-11-25T03:50:33;1.20;;;0.85;;
54853;SDS011;40747;49.480;8.658;2022-11-25T03:52:59;0.28;;;0.28;;
54853;SDS011;40747;49.480;8.658;2022-11-25T03:55:24;1.70;;;1.60;;
54853;SDS011;40747;49.480;8.658;2022-11-25T03:57:49;4.72;;;1.67;;
54853;SDS011;40747;49.480;8.658;2022-11-25T04:00:14;1.13;;;0.40;;
54853;SDS011;40747;49.480;8.658;2022-11-25T04:02:40;8.45;;;1.02;;
54853;SDS011;40747;49.480;8.658;2022-11-25T04:05:05;1.83;;;1.00;;
54853;SDS011;40747;49.480;8.658;2022-11-25T04:07:31;13.68;;;1.23;;
54853;SDS011;40747;49.480;8.658;2022-11-25T04:09:56;3.50;;;0.95;;
54853;SDS011;40747;49.480;8.658;2022-11-25T04:12:21;7.50;;;0.85;;
54853;SDS011;40747;49.480;8.658;2022-11-25T04:15:06;1.52;;;1.20;;
54853;SDS011;40747;49.480;8.658;2022-11-25T04:17:31;8.60;;;0.98;;
54853;SDS011;40747;49.480;8.658;2022-11-25T04:19:57;3.00;;;1.48;;
54853;SDS011;40747;49.480;8.658;2022-11-25T04:22:22;3.70;;;1.15;;
54853;SDS011;40747;49.480;8.658;2022-11-25T04:24:47;1.55;;;0.82;;
54853;SDS011;40747;49.480;8.658;2022-11-25T04:27:13;4.32;;;1.30;;
54853;SDS011;40747;49.480;8.658;2022-11-25T04:29:38;5.60;;;2.13;;
54853;SDS011;40747;49.480;8.658;2022-11-25T04:32:03;4.85;;;1.35;;
54853;SDS011;40747;49.480;8.658;2022-11-25T04:34:29;6.10;;;1.02;;
54853;SDS011;40747;49.480;8.658;2022-11-25T04:36:54;5.68;;;0.60;;
54853;SDS011;40747;49.480;8.658;2022-11-25T04:39:19;5.07;;;1.08;;
54853;SDS011;40747;49.480;8.658;2022-11-25T04:41:45;1.38;;;0.95;;
54853;SDS011;40747;49.480;8.658;2022-11-25T04:44:10;14.18;;;1.38;;
54853;SDS011;40747;49.480;8.658;2022-11-25T04:46:36;4.93;;;1.10;;
54853;SDS011;40747;49.480;8.658;2022-11-25T04:49:05;2.85;;;1.40;;
54853;SDS011;40747;49.480;8.658;2022-11-25T04:51:30;5.90;;;1.17;;
54853;SDS011;40747;49.480;8.658;2022-11-25T04:53:56;2.78;;;1.13;;
54853;SDS011;40747;49.480;8.658;2022-11-25T04:56:21;4.30;;;1.05;;
54853;SDS011;40747;49.480;8.658;2022-11-25T04:58:46;2.47;;;0.90;;
54853;SDS011;40747;49.480;8.658;2022-11-25T05:01:30;5.10;;;1.27;;
54853;SDS011;40747;49.480;8.658;2022-11-25T05:03:56;3.63;;;1.40;;
54853;SDS011;40747;49.480;8.658;2022-11-25T05:06:21;1.77;;;1.15;;
54853;SDS011;40747;49.480;8.658;2022-11-25T05:08:47;7.13;;;0.82;;
54853;SDS011;40747;49.480;8.658;2022-11-25T05:11:13;1.02;;;0.85;;
54853;SDS011;40747;49.480;8.658;2022-11-25T05:13:38;1.35;;;0.93;;
54853;SDS011;40747;49.480;8.658;2022-11-25T05:16:04;1.42;;;0.90;;
54853;SDS011;40747;49.480;8.658;2022-11-25T05:18:30;1.08;;;0.40;;
54853;SDS011;40747;49.480;8.658;2022-11-25T05:20:59;1.42;;;0.70;;
54853;SDS011;40747;49.480;8.658;2022-11-25T05:23:25;7.68;;;0.90;;
54853;SDS011;40747;49.480;8.658;2022-11-25T05:25:50;1.80;;;0.88;;
54853;SDS011;40747;49.480;8.658;2022-11-25T05:28:16;4.68;;;0.73;;
54853;SDS011;40747;49.480;8.658;2022-11-25T05:30:41;6.78;;;1.13;;
54853;SDS011;40747;49.480;8.658;2022-11-25T05:33:09;0.80;;;0.60;;
54853;SDS011;40747;49.480;8.658;2022-11-25T05:35:34;4.75;;;1.45;;
54853;SDS011;40747;49.480;8.658;2022-11-25T05:37:59;4.25;;;1.27;;
54853;SDS011;40747;49.480;8.658;2022-11-25T05:40:27;0.90;;;0.85;;
54853;SDS011;40747;49.480;8.658;2022-11-25T05:42:53;2.25;;;1.45;;
54853;SDS011;40747;49.480;8.658;2022-11-25T05:45:18;2.33;;;0.90;;
54853;SDS011;40747;49.480;8.658;2022-11-25T05:47:44;1.42;;;0.85;;
54853;SDS011;40747;49.480;8.658;2022-11-25T05:50:09;2.70;;;1.50;;
54853;SDS011;40747;49.480;8.658;2022-11-25T05:52:34;3.55;;;1.70;;
54853;SDS011;40747;49.480;8.658;2022-11-25T05:55:00;8.45;;;4.60;;
54853;SDS011;40747;49.480;8.658;2022-11-25T05:57:28;6.20;;;2.08;;
54853;SDS011;40747;49.480;8.658;2022-11-25T05:59:53;6.65;;;3.97;;
54853;SDS011;40747;49.480;8.658;2022-11-25T06:02:19;12.23;;;5.97;;
54853;SDS011;40747;49.480;8.658;2022-11-25T06:04:44;5.53;;;3.35;;
54853;SDS011;40747;49.480;8.658;2022-11-25T06:07:10;10.73;;;4.63;;
54853;SDS011;40747;49.480;8.658;2022-11-25T06:09:36;6.05;;;2.85;;
54853;SDS011;40747;49.480;8.658;2022-11-25T06:12:01;3.70;;;1.75;;
54853;SDS011;40747;49.480;8.658;2022-11-25T06:14:27;3.70;;;2.42;;
54853;SDS011;40747;49.480;8.658;2022-11-25T06:16:53;6.60;;;2.78;;
54853;SDS011;40747;49.480;8.658;2022-11-25T06:19:18;3.60;;;2.38;;
54853;SDS011;40747;49.480;8.658;2022-11-25T06:21:44;4.90;;;2.45;;
54853;SDS011;40747;49.480;8.658;2022-11-25T06:24:09;13.00;;;3.97;;
54853;SDS011;40747;49.480;8.658;2022-11-25T06:26:34;6.45;;;3.65;;
54853;SDS011;40747;49.480;8.658;2022-11-25T06:29:00;5.88;;;2.90;;
54853;SDS011;40747;49.480;8.658;2022-11-25T06:31:25;4.50;;;2.90;;
54853;SDS011;40747;49.480;8.658;2022-11-25T06:33:51;5.72;;;3.40;;
54853;SDS011;40747;49.480;8.658;2022-11-25T06:36:18;7.68;;;3.25;;
54853;SDS011;40747;49.480;8.658;2022-11-25T06:38:49;10.40;;;3.65;;
54853;SDS011;40747;49.480;8.658;2022-11-25T06:41:16;13.77;;;3.40;;
54853;SDS011;40747;49.480;8.658;2022-11-25T06:43:41;6.25;;;2.53;;
54853;SDS011;40747;49.480;8.658;2022-11-25T06:46:11;8.02;;;2.67;;
54853;SDS011;40747;49.480;8.658;2022-11-25T06:48:39;5.20;;;2.63;;
54853;SDS011;40747;49.480;8.658;2022-11-25T06:51:09;3.13;;;2.33;;
54853;SDS011;40747;49.480;8.658;2022-11-25T06:53:36;3.75;;;2.38;;
54853;SDS011;40747;49.480;8.658;2022-11-25T06:56:02;7.75;;;2.58;;
54853;SDS011;40747;49.480;8.658;2022-11-25T06:58:38;7.40;;;4.00;;
54853;SDS011;40747;49.480;8.658;2022-11-25T07:03:32;3.60;;;2.10;;
54853;SDS011;40747;49.480;8.658;2022-11-25T07:05:58;19.30;;;3.13;;
54853;SDS011;40747;49.480;8.658;2022-11-25T07:08:25;7.82;;;2.78;;
54853;SDS011;40747;49.480;8.658;2022-11-25T07:10:51;6.90;;;2.75;;
54853;SDS011;40747;49.480;8.658;2022-11-25T07:13:17;4.75;;;2.58;;
54853;SDS011;40747;49.480;8.658;2022-11-25T07:15:43;3.47;;;2.90;;
54853;SDS011;40747;49.480;8.658;2022-11-25T07:18:08;7.20;;;2.92;;
54853;SDS011;40747;49.480;8.658;2022-11-25T07:20:33;10.57;;;4.25;;
54853;SDS011;40747;49.480;8.658;2022-11-25T07:22:58;4.50;;;2.63;;
54853;SDS011;40747;49.480;8.658;2022-11-25T07:25:24;8.27;;;2.92;;
54853;SDS011;40747;49.480;8.658;2022-11-25T07:27:49;10.45;;;2.90;;
54853;SDS011;40747;49.480;8.658;2022-11-25T07:30:15;3.58;;;2.10;;
54853;SDS011;40747;49.480;8.658;2022-11-25T07:32:40;6.80;;;2.70;;
54853;SDS011;40747;49.480;8.658;2022-11-25T07:35:06;7.45;;;1.58;;
54853;SDS011;40747;49.480;8.658;2022-11-25T07:37:32;6.07;;;2.20;;
54853;SDS011;40747;49.480;8.658;2022-11-25T07:39:57;4.07;;;1.63;;
54853;SDS011;40747;49.480;8.658;2022-11-25T07:42:22;4.38;;;1.38;;
54853;SDS011;40747;49.480;8.658;2022-11-25T07:44:48;11.57;;;2.15;;
54853;SDS011;40747;49.480;8.658;2022-11-25T07:47:13;2.22;;;1.55;;
54853;SDS011;40747;49.480;8.658;2022-11-25T07:49:39;3.33;;;2.17;;
54853;SDS011;40747;49.480;8.658;2022-11-25T07:52:04;2.33;;;1.70;;
54853;SDS011;40747;49.480;8.658;2022-11-25T07:54:30;1.33;;;0.90;;
54853;SDS011;40747;49.480;8.658;2022-11-25T07:56:57;2.88;;;1.30;;
54853;SDS011;40747;49.480;8.658;2022-11-25T07:59:23;6.78;;;1.27;;
54853;SDS011;40747;49.480;8.658;2022-11-25T08:01:52;1.70;;;0.60;;
54853;SDS011;40747;49.480;8.658;2022-11-25T08:04:18;2.13;;;1.10;;
54853;SDS011;40747;49.480;8.658;2022-11-25T08:06:44;2.03;;;0.88;;
54853;SDS011;40747;49.480;8.658;2022-11-25T08:09:12;5.60;;;2.53;;
54853;SDS011;40747;49.480;8.658;2022-11-25T08:11:40;1.95;;;1.25;;
54853;SDS011;40747;49.480;8.658;2022-11-25T08:14:05;6.43;;;1.73;;
54853;SDS011;40747;49.480;8.658;2022-11-25T08:16:31;11.27;;;2.00;;
54853;SDS011;40747;49.480;8.658;2022-11-25T08:19:01;5.80;;;0.93;;
54853;SDS011;40747;49.480;8.658;2022-11-25T08:21:28;1.15;;;1.00;;
54853;SDS011;40747;49.480;8.658;2022-11-25T08:23:53;1.67;;;1.20;;
54853;SDS011;40747;49.480;8.658;2022-11-25T08:26:20;3.92;;;1.25;;
54853;SDS011;40747;49.480;8.658;2022-11-25T08:28:48;5.93;;;1.25;;
54853;SDS011;40747;49.480;8.658;2022-11-25T08:31:19;0.60;;;0.35;;
54853;SDS011;40747;49.480;8.658;2022-11-25T08:33:46;1.75;;;1.08;;
54853;SDS011;40747;49.480;8.658;2022-11-25T08:36:12;1.13;;;0.80;;
54853;SDS011;40747;49.480;8.658;2022-11-25T08:38:39;4.43;;;1.02;;
54853;SDS011;40747;49.480;8.658;2022-11-25T08:41:13;2.70;;;0.77;;
54853;SDS011;40747;49.480;8.658;2022-11-25T08:43:43;1.30;;;1.02;;
54853;SDS011;40747;49.480;8.658;2022-11-25T08:46:10;3.28;;;1.23;;
54853;SDS011;40747;49.480;8.658;2022-11-25T08:48:38;2.10;;;0.93;;
54853;SDS011;40747;49.480;8.658;2022-11-25T08:51:07;5.30;;;1.52;;
54853;SDS011;40747;49.480;8.658;2022-11-25T08:53:36;4.13;;;1.35;;
54853;SDS011;40747;49.480;8.658;2022-11-25T08:56:03;0.93;;;0.70;;
54853;SDS011;40747;49.480;8.658;2022-11-25T08:58:29;11.25;;;0.88;;
54853;SDS011;40747;49.480;8.658;2022-11-25T09:00:54;4.40;;;0.90;;
54853;SDS011;40747;49.480;8.658;2022-11-25T09:03:19;1.45;;;0.85;;
54853;SDS011;40747;49.480;8.658;2022-11-25T09:05:45;1.02;;;0.93;;
54853;SDS011;40747;49.480;8.658;2022-11-25T09:08:10;1.67;;;0.65;;
54853;SDS011;40747;49.480;8.658;2022-11-25T09:10:36;2.83;;;1.27;;
54853;SDS011;40747;49.480;8.658;2022-11-25T09:13:03;2.22;;;1.05;;
54853;SDS011;40747;49.480;8.658;2022-11-25T09:15:28;5.63;;;1.67;;
54853;SDS011;40747;49.480;8.658;2022-11-25T09:17:57;3.65;;;1.48;;
54853;SDS011;40747;49.480;8.658;2022-11-25T09:20:28;3.15;;;0.80;;
54853;SDS011;40747;49.480;8.658;2022-11-25T09:22:54;2.28;;;0.93;;
54853;SDS011;40747;49.480;8.658;2022-11-25T09:25:20;2.25;;;1.45;;
54853;SDS011;40747;49.480;8.658;2022-11-25T09:27:47;1.05;;;0.88;;
54853;SDS011;40747;49.480;8.658;2022-11-25T09:30:12;2.42;;;0.90;;
54853;SDS011;40747;49.480;8.658;2022-11-25T09:32:38;1.30;;;0.80;;
54853;SDS011;40747;49.480;8.658;2022-11-25T09:35:03;2.30;;;1.40;;
54853;SDS011;40747;49.480;8.658;2022-11-25T09:37:29;1.00;;;0.88;;
54853;SDS011;40747;49.480;8.658;2022-11-25T09:39:54;3.10;;;1.30;;
54853;SDS011;40747;49.480;8.658;2022-11-25T09:45:20;7.97;;;1.65;;
54853;SDS011;40747;49.480;8.658;2022-11-25T09:48:22;3.50;;;1.40;;
54853;SDS011;40747;49.480;8.658;2022-11-25T09:51:06;7.57;;;1.17;;
54853;SDS011;40747;49.480;8.658;2022-11-25T09:56:50;2.40;;;1.23;;
54853;SDS011;40747;49.480;8.658;2022-11-25T09:59:21;5.22;;;1.33;;
54853;SDS011;40747;49.480;8.658;2022-11-25T10:01:55;2.42;;;1.15;;
54853;SDS011;40747;49.480;8.658;2022-11-25T10:04:34;3.58;;;1.45;;
54853;SDS011;40747;49.480;8.658;2022-11-25T10:07:09;5.40;;;1.63;;
54853;SDS011;40747;49.480;8.658;2022-11-25T10:09:42;1.60;;;1.05;;
54853;SDS011;40747;49.480;8.658;2022-11-25T10:17:19;2.45;;;1.25;;
54853;SDS011;40747;49.480;8.658;2022-11-25T10:20:06;4.80;;;1.10;;
54853;SDS011;40747;49.480;8.658;2022-11-25T10:22:41;4.28;;;1.77;;
54853;SDS011;40747;49.480;8.658;2022-11-25T10:30:35;3.67;;;1.45;;
54853;SDS011;40747;49.480;8.658;2022-11-25T10:38:48;3.25;;;1.45;;
54853;SDS011;40747;49.480;8.658;2022-11-25T10:41:26;4.68;;;1.92;;
54853;SDS011;40747;49.480;8.658;2022-11-25T10:43:55;6.30;;;1.40;;
54853;SDS011;40747;49.480;8.658;2022-11-25T10:46:28;3.45;;;2.05;;
54853;SDS011;40747;49.480;8.658;2022-11-25T10:49:13;6.70;;;1.98;;
54853;SDS011;40747;49.480;8.658;2022-11-25T10:51:47;5.00;;;2.28;;
54853;SDS011;40747;49.480;8.658;2022-11-25T10:54:15;4.22;;;2.25;;
54853;SDS011;40747;49.480;8.658;2022-11-25T10:56:54;10.50;;;2.97;;
54853;SDS011;40747;49.480;8.658;2022-11-25T10:59:31;4.03;;;2.83;;
54853;SDS011;40747;49.480;8.658;2022-11-25T11:07:44;6.57;;;2.05;;
54853;SDS011;40747;49.480;8.658;2022-11-25T11:12:54;4.15;;;2.33;;
54853;SDS011;40747;49.480;8.658;2022-11-25T11:15:24;7.10;;;3.67;;
54853;SDS011;40747;49.480;8.658;2022-11-25T11:17:55;4.32;;;2.05;;
54853;SDS011;40747;49.480;8.658;2022-11-25T11:20:23;13.38;;;3.25;;
54853;SDS011;40747;49.480;8.658;2022-11-25T11:22:57;3.50;;;1.83;;
54853;SDS011;40747;49.480;8.658;2022-11-25T11:25:37;5.68;;;2.58;;
54853;SDS011;40747;49.480;8.658;2022-11-25T11:28:24;6.60;;;2.88;;
54853;SDS011;40747;49.480;8.658;2022-11-25T11:30:53;7.45;;;3.20;;
54853;SDS011;40747;49.480;8.658;2022-11-25T11:50:45;10.05;;;4.53;;
54853;SDS011;40747;49.480;8.658;2022-11-25T11:58:34;7.90;;;3.47;;
54853;SDS011;40747;49.480;8.658;2022-11-25T12:06:38;5.72;;;2.38;;
54853;SDS011;40747;49.480;8.658;2022-11-25T12:09:08;11.45;;;4.07;;
54853;SDS011;40747;49.480;8.658;2022-11-25T12:11:41;6.00;;;2.40;;
54853;SDS011;40747;49.480;8.658;2022-11-25T12:17:06;7.88;;;3.45;;
54853;SDS011;40747;49.480;8.658;2022-11-25T12:19:40;38.25;;;3.72;;
54853;SDS011;40747;49.480;8.658;2022-11-25T12:27:46;5.85;;;2.40;;
54853;SDS011;40747;49.480;8.658;2022-11-25T12:30:18;4.35;;;2.30;;
54853;SDS011;40747;49.480;8.658;2022-11-25T12:35:32;2.90;;;1.67;;
54853;SDS011;40747;49.480;8.658;2022-11-25T12:41:18;2.65;;;1.67;;
54853;SDS011;40747;49.480;8.658;2022-11-25T12:49:11;7.07;;;2.35;;
54853;SDS011;40747;49.480;8.658;2022-11-25T13:13:47;3.95;;;2.40;;
54853;SDS011;40747;49.480;8.658;2022-11-25T13:16:20;7.05;;;2.60;;
54853;SDS011;40747;49.480;8.658;2022-11-25T13:18:47;2.78;;;2.10;;
54853;SDS011;40747;49.480;8.658;2022-11-25T13:21:13;5.22;;;2.90;;
54853;SDS011;40747;49.480;8.658;2022-11-25T13:28:54;4.22;;;2.72;;
54853;SDS011;40747;49.480;8.658;2022-11-25T13:31:22;10.52;;;4.68;;
54853;SDS011;40747;49.480;8.658;2022-11-25T13:34:01;5.82;;;2.83;;
54853;SDS011;40747;49.480;8.658;2022-11-25T13:36:46;5.65;;;1.98;;
54853;SDS011;40747;49.480;8.658;2022-11-25T13:39:17;6.03;;;2.00;;
54853;SDS011;40747;49.480;8.658;2022-11-25T13:42:00;8.52;;;2.65;;
54853;SDS011;40747;49.480;8.658;2022-11-25T13:44:32;5.38;;;2.08;;
54853;SDS011;40747;49.480;8.658;2022-11-25T13:50:05;5.53;;;2.70;;
54853;SDS011;40747;49.480;8.658;2022-11-25T13:52:56;6.25;;;2.38;;
54853;SDS011;40747;49.480;8.658;2022-11-25T13:55:25;6.65;;;2.30;;
54853;SDS011;40747;49.480;8.658;2022-11-25T13:58:04;5.13;;;2.55;;
54853;SDS011;40747;49.480;8.658;2022-11-25T14:20:15;3.97;;;2.42;;
54853;SDS011;40747;49.480;8.658;2022-11-25T14:22:55;11.77;;;2.38;;
54853;SDS011;40747;49.480;8.658;2022-11-25T14:25:26;6.50;;;3.10;;
54853;SDS011;40747;49.480;8.658;2022-11-25T14:27:57;5.05;;;2.42;;
54853;SDS011;40747;49.480;8.658;2022-11-25T14:30:32;5.43;;;2.00;;
54853;SDS011;40747;49.480;8.658;2022-11-25T14:33:03;5.80;;;2.53;;
54853;SDS011;40747;49.480;8.658;2022-11-25T14:35:35;6.10;;;2.85;;
54853;SDS011;40747;49.480;8.658;2022-11-25T14:40:35;6.45;;;3.35;;
54853;SDS011;40747;49.480;8.658;2022-11-25T14:43:08;5.90;;;2.53;;
54853;SDS011;40747;49.480;8.658;2022-11-25T14:45:38;5.43;;;2.75;;
54853;SDS011;40747;49.480;8.658;2022-11-25T14:48:19;7.22;;;2.97;;
54853;SDS011;40747;49.480;8.658;2022-11-25T14:51:08;4.00;;;2.75;;
54853;SDS011;40747;49.480;8.658;2022-11-25T14:53:43;4.18;;;2.00;;
54853;SDS011;40747;49.480;8.658;2022-11-25T14:56:11;4.43;;;2.35;;
54853;SDS011;40747;49.480;8.658;2022-11-25T14:58:38;6.10;;;2.88;;
54853;SDS011;40747;49.480;8.658;2022-11-25T15:01:06;7.28;;;2.78;;
54853;SDS011;40747;49.480;8.658;2022-11-25T15:03:40;7.60;;;3.67;;
54853;SDS011;40747;49.480;8.658;2022-11-25T15:06:05;7.05;;;3.58;;
54853;SDS011;40747;49.480;8.658;2022-11-25T15:08:38;5.28;;;2.65;;
54853;SDS011;40747;49.480;8.658;2022-11-25T15:11:16;8.77;;;3.75;;
54853;SDS011;40747;49.480;8.658;2022-11-25T15:13:45;8.02;;;3.33;;
54853;SDS011;40747;49.480;8.658;2022-11-25T15:16:16;8.38;;;3.90;;
54853;SDS011;40747;49.480;8.658;2022-11-25T15:18:48;6.70;;;2.75;;
54853;SDS011;40747;49.480;8.658;2022-11-25T15:21:14;7.57;;;3.15;;
54853;SDS011;40747;49.480;8.658;2022-11-25T15:23:41;8.88;;;2.92;;
54853;SDS011;40747;49.480;8.658;2022-11-25T15:26:19;2.53;;;2.17;;
54853;SDS011;40747;49.480;8.658;2022-11-25T15:28:51;7.60;;;3.08;;
54853;SDS011;40747;49.480;8.658;2022-11-25T15:31:23;7.97;;;2.42;;
54853;SDS011;40747;49.480;8.658;2022-11-25T15:33:52;5.43;;;2.65;;
54853;SDS011;40747;49.480;8.658;2022-11-25T15:36:21;7.85;;;2.53;;
54853;SDS011;40747;49.480;8.658;2022-11-25T15:38:47;4.80;;;3.03;;
54853;SDS011;40747;49.480;8.658;2022-11-25T15:43:59;6.25;;;3.38;;
54853;SDS011;40747;49.480;8.658;2022-11-25T15:46:29;5.05;;;2.97;;
54853;SDS011;40747;49.480;8.658;2022-11-25T15:49:00;10.73;;;3.35;;
54853;SDS011;40747;49.480;8.658;2022-11-25T15:56:36;7.93;;;3.53;;
54853;SDS011;40747;49.480;8.658;2022-11-25T15:59:34;3.30;;;2.63;;
54853;SDS011;40747;49.480;8.658;2022-11-25T16:12:41;6.10;;;3.97;;
54853;SDS011;40747;49.480;8.658;2022-11-25T16:15:15;9.32;;;3.88;;
54853;SDS011;40747;49.480;8.658;2022-11-25T16:17:41;5.78;;;4.10;;
54853;SDS011;40747;49.480;8.658;2022-11-25T16:20:15;8.07;;;4.70;;
54853;SDS011;40747;49.480;8.658;2022-11-25T16:22:42;6.38;;;4.10;;
54853;SDS011;40747;49.480;8.658;2022-11-25T16:25:08;9.75;;;4.28;;
54853;SDS011;40747;49.480;8.658;2022-11-25T16:27:35;19.75;;;4.15;;
54853;SDS011;40747;49.480;8.658;2022-11-25T16:32:30;5.70;;;3.67;;
54853;SDS011;40747;49.480;8.658;2022-11-25T16:35:12;6.95;;;4.05;;
54853;SDS011;40747;49.480;8.658;2022-11-25T16:37:39;7.22;;;3.92;;
54853;SDS011;40747;49.480;8.658;2022-11-25T16:40:05;7.38;;;2.92;;
54853;SDS011;40747;49.480;8.658;2022-11-25T16:42:31;8.63;;;4.00;;
54853;SDS011;40747;49.480;8.658;2022-11-25T16:44:57;5.95;;;2.65;;
54853;SDS011;40747;49.480;8.658;2022-11-25T16:47:25;9.25;;;4.20;;
54853;SDS011;40747;49.480;8.658;2022-11-25T16:49:50;14.10;;;4.63;;
54853;SDS011;40747;49.480;8.658;2022-11-25T16:52:16;6.18;;;4.22;;
54853;SDS011;40747;49.480;8.658;2022-11-25T16:54:41;13.10;;;6.80;;
54853;SDS011;40747;49.480;8.658;2022-11-25T16:57:08;10.68;;;4.68;;
54853;SDS011;40747;49.480;8.658;2022-11-25T16:59:43;7.18;;;4.68;;
54853;SDS011;40747;49.480;8.658;2022-11-25T17:02:14;12.95;;;5.13;;
54853;SDS011;40747;49.480;8.658;2022-11-25T17:04:42;5.45;;;4.20;;
54853;SDS011;40747;49.480;8.658;2022-11-25T17:07:11;6.45;;;3.83;;
54853;SDS011;40747;49.480;8.658;2022-11-25T17:09:37;10.20;;;5.18;;
54853;SDS011;40747;49.480;8.658;2022-11-25T17:12:03;9.25;;;4.13;;
54853;SDS011;40747;49.480;8.658;2022-11-25T17:14:31;6.18;;;3.72;;
54853;SDS011;40747;49.480;8.658;2022-11-25T17:16:58;10.32;;;4.05;;
54853;SDS011;40747;49.480;8.658;2022-11-25T17:19:25;5.65;;;3.65;;
54853;SDS011;40747;49.480;8.658;2022-11-25T17:21:50;7.70;;;3.03;;
54853;SDS011;40747;49.480;8.658;2022-11-25T17:24:17;14.68;;;4.72;;
54853;SDS011;40747;49.480;8.658;2022-11-25T17:26:55;11.43;;;3.55;;
54853;SDS011;40747;49.480;8.658;2022-11-25T17:29:33;5.22;;;3.17;;
54853;SDS011;40747;49.480;8.658;2022-11-25T17:32:02;10.57;;;3.83;;
54853;SDS011;40747;49.480;8.658;2022-11-25T17:34:28;8.18;;;3.58;;